sensor_id;sensor_type;location;lat;lon;timestamp;P1;durP1;ratioP1;P2;durP2;ratioP2
68097;SDS011;54886;47.036;15.466;2023-04-24T00:00:21;5.30;;;3.50;;
68097;SDS011;54886;47.036;15.466;2023-04-24T00:02:46;4.70;;;3.53;;
68097;SDS011;54886;47.036;15.466;2023-04-24T00:05:13;4.78;;;3.67;;
68097;SDS011;54886;47.036;15.466;2023-04-24T00:07:40;4.63;;;3.33;;
68097;SDS011;54886;47.036;15.466;2023-04-24T00:10:06;7.68;;;3.60;;
68097;SDS011;54886;47.036;15.466;2023-04-24T00:12:32;5.88;;;3.90;;
68097;SDS011;54886;47.036;15.466;2023-04-24T00:14:57;4.53;;;3.22;;
68097;SDS011;54886;47.036;15.466;2023-04-24T00:17:23;6.75;;;4.00;;
68097;SDS011;54886;47.036;15.466;2023-04-24T00:19:48;6.55;;;3.75;;
68097;SDS011;54886;47.036;15.466;2023-04-24T00:22:16;6.25;;;3.83;;
68097;SDS011;54886;47.036;15.466;2023-04-24T00:24:42;5.40;;;3.90;;
68097;SDS011;54886;47.036;15.466;2023-04-24T00:27:07;5.65;;;3.92;;
68097;SDS011;54886;47.036;15.466;2023-04-24T00:29:33;7.47;;;4.63;;
68097;SDS011;54886;47.036;15.466;2023-04-24T00:31:58;6.70;;;4.45;;
68097;SDS011;54886;47.036;15.466;2023-04-24T00:34:23;6.25;;;4.60;;
68097;SDS011;54886;47.036;15.466;2023-04-24T00:36:49;5.72;;;3.90;;
68097;SDS011;54886;47.036;15.466;2023-04-24T00:39:17;6.25;;;3.88;;
68097;SDS011;54886;47.036;15.466;2023-04-24T00:41:45;6.03;;;3.97;;
68097;SDS011;54886;47.036;15.466;2023-04-24T00:44:12;6.65;;;4.18;;
68097;SDS011;54886;47.036;15.466;2023-04-24T00:46:37;5.63;;;3.88;;
68097;SDS011;54886;47.036;15.466;2023-04-24T00:49:04;5.88;;;3.72;;
68097;SDS011;54886;47.036;15.466;2023-04-24T00:51:30;8.32;;;3.83;;
68097;SDS011;54886;47.036;15.466;2023-04-24T00:53:57;6.17;;;3.50;;
68097;SDS011;54886;47.036;15.466;2023-04-24T00:56:23;5.45;;;3.60;;
68097;SDS011;54886;47.036;15.466;2023-04-24T00:58:49;5.35;;;3.88;;
68097;SDS011;54886;47.036;15.466;2023-04-24T01:01:15;7.03;;;3.88;;
68097;SDS011;54886;47.036;15.466;2023-04-24T01:03:40;6.35;;;3.75;;
68097;SDS011;54886;47.036;15.466;2023-04-24T01:06:06;6.35;;;3.60;;
68097;SDS011;54886;47.036;15.466;2023-04-24T01:08:32;4.57;;;3.35;;
68097;SDS011;54886;47.036;15.466;2023-04-24T01:10:59;4.47;;;3.38;;
68097;SDS011;54886;47.036;15.466;2023-04-24T01:13:28;5.28;;;3.58;;
68097;SDS011;54886;47.036;15.466;2023-04-24T01:15:54;7.55;;;3.80;;
68097;SDS011;54886;47.036;15.466;2023-04-24T01:18:19;6.18;;;3.80;;
68097;SDS011;54886;47.036;15.466;2023-04-24T01:20:46;6.13;;;3.87;;
68097;SDS011;54886;47.036;15.466;2023-04-24T01:23:14;7.70;;;4.32;;
68097;SDS011;54886;47.036;15.466;2023-04-24T01:25:40;6.65;;;4.32;;
68097;SDS011;54886;47.036;15.466;2023-04-24T01:28:05;5.82;;;3.80;;
68097;SDS011;54886;47.036;15.466;2023-04-24T01:30:31;7.07;;;3.92;;
68097;SDS011;54886;47.036;15.466;2023-04-24T01:32:57;6.97;;;4.20;;
68097;SDS011;54886;47.036;15.466;2023-04-24T01:35:23;5.65;;;3.78;;
68097;SDS011;54886;47.036;15.466;2023-04-24T01:37:49;6.05;;;3.65;;
68097;SDS011;54886;47.036;15.466;2023-04-24T01:40:15;5.60;;;3.90;;
68097;SDS011;54886;47.036;15.466;2023-04-24T01:42:41;6.20;;;3.60;;
68097;SDS011;54886;47.036;15.466;2023-04-24T01:45:07;5.65;;;3.72;;
68097;SDS011;54886;47.036;15.466;2023-04-24T01:47:35;5.72;;;3.95;;
68097;SDS011;54886;47.036;15.466;2023-04-24T01:50:01;5.43;;;3.72;;
68097;SDS011;54886;47.036;15.466;2023-04-24T01:52:26;7.68;;;4.07;;
68097;SDS011;54886;47.036;15.466;2023-04-24T01:54:53;6.50;;;3.80;;
68097;SDS011;54886;47.036;15.466;2023-04-24T01:57:20;5.70;;;3.40;;
68097;SDS011;54886;47.036;15.466;2023-04-24T01:59:46;4.60;;;3.50;;
68097;SDS011;54886;47.036;15.466;2023-04-24T02:02:11;5.15;;;3.45;;
68097;SDS011;54886;47.036;15.466;2023-04-24T02:04:36;4.65;;;3.22;;
68097;SDS011;54886;47.036;15.466;2023-04-24T02:07:02;4.68;;;3.28;;
68097;SDS011;54886;47.036;15.466;2023-04-24T02:09:27;4.60;;;3.38;;
68097;SDS011;54886;47.036;15.466;2023-04-24T02:11:53;6.40;;;3.90;;
68097;SDS011;54886;47.036;15.466;2023-04-24T02:14:18;5.38;;;3.60;;
68097;SDS011;54886;47.036;15.466;2023-04-24T02:16:43;6.18;;;3.75;;
68097;SDS011;54886;47.036;15.466;2023-04-24T02:19:09;5.38;;;3.53;;
68097;SDS011;54886;47.036;15.466;2023-04-24T02:21:35;7.00;;;3.83;;
68097;SDS011;54886;47.036;15.466;2023-04-24T02:24:00;6.07;;;4.03;;
68097;SDS011;54886;47.036;15.466;2023-04-24T02:26:26;5.50;;;3.53;;
68097;SDS011;54886;47.036;15.466;2023-04-24T02:28:51;9.93;;;4.20;;
68097;SDS011;54886;47.036;15.466;2023-04-24T02:31:17;7.00;;;4.43;;
68097;SDS011;54886;47.036;15.466;2023-04-24T02:33:42;6.60;;;4.20;;
68097;SDS011;54886;47.036;15.466;2023-04-24T02:36:07;7.07;;;4.30;;
68097;SDS011;54886;47.036;15.466;2023-04-24T02:38:33;6.57;;;4.53;;
68097;SDS011;54886;47.036;15.466;2023-04-24T02:40:58;5.82;;;4.13;;
68097;SDS011;54886;47.036;15.466;2023-04-24T02:43:25;8.52;;;4.68;;
68097;SDS011;54886;47.036;15.466;2023-04-24T02:45:51;7.15;;;4.18;;
68097;SDS011;54886;47.036;15.466;2023-04-24T02:48:16;7.60;;;4.38;;
68097;SDS011;54886;47.036;15.466;2023-04-24T02:50:42;8.07;;;4.70;;
68097;SDS011;54886;47.036;15.466;2023-04-24T02:53:07;7.35;;;4.63;;
68097;SDS011;54886;47.036;15.466;2023-04-24T02:55:32;7.45;;;4.95;;
68097;SDS011;54886;47.036;15.466;2023-04-24T02:57:58;7.93;;;4.78;;
68097;SDS011;54886;47.036;15.466;2023-04-24T03:00:23;7.82;;;5.15;;
68097;SDS011;54886;47.036;15.466;2023-04-24T03:02:48;7.03;;;4.78;;
68097;SDS011;54886;47.036;15.466;2023-04-24T03:05:14;8.10;;;4.88;;
68097;SDS011;54886;47.036;15.466;2023-04-24T03:07:40;6.75;;;4.38;;
68097;SDS011;54886;47.036;15.466;2023-04-24T03:10:06;8.18;;;4.72;;
68097;SDS011;54886;47.036;15.466;2023-04-24T03:12:32;6.80;;;4.55;;
68097;SDS011;54886;47.036;15.466;2023-04-24T03:14:57;6.93;;;4.13;;
68097;SDS011;54886;47.036;15.466;2023-04-24T03:17:22;5.80;;;4.03;;
68097;SDS011;54886;47.036;15.466;2023-04-24T03:19:48;7.20;;;4.38;;
68097;SDS011;54886;47.036;15.466;2023-04-24T03:22:13;7.82;;;5.03;;
68097;SDS011;54886;47.036;15.466;2023-04-24T03:24:38;7.35;;;4.55;;
68097;SDS011;54886;47.036;15.466;2023-04-24T03:27:04;7.88;;;4.70;;
68097;SDS011;54886;47.036;15.466;2023-04-24T03:29:29;7.82;;;4.95;;
68097;SDS011;54886;47.036;15.466;2023-04-24T03:31:54;6.90;;;4.40;;
68097;SDS011;54886;47.036;15.466;2023-04-24T03:34:20;7.00;;;4.07;;
68097;SDS011;54886;47.036;15.466;2023-04-24T03:36:45;5.53;;;3.97;;
68097;SDS011;54886;47.036;15.466;2023-04-24T03:39:12;7.43;;;4.38;;
68097;SDS011;54886;47.036;15.466;2023-04-24T03:41:38;6.68;;;4.35;;
68097;SDS011;54886;47.036;15.466;2023-04-24T03:44:03;6.85;;;4.28;;
68097;SDS011;54886;47.036;15.466;2023-04-24T03:46:29;7.20;;;4.03;;
68097;SDS011;54886;47.036;15.466;2023-04-24T03:48:54;6.68;;;4.30;;
68097;SDS011;54886;47.036;15.466;2023-04-24T03:51:20;6.35;;;4.18;;
68097;SDS011;54886;47.036;15.466;2023-04-24T03:53:45;6.95;;;4.45;;
68097;SDS011;54886;47.036;15.466;2023-04-24T03:56:10;7.38;;;4.15;;
68097;SDS011;54886;47.036;15.466;2023-04-24T03:58:36;7.07;;;4.15;;
68097;SDS011;54886;47.036;15.466;2023-04-24T04:01:01;8.25;;;4.47;;
68097;SDS011;54886;47.036;15.466;2023-04-24T04:03:27;8.57;;;3.95;;
68097;SDS011;54886;47.036;15.466;2023-04-24T04:05:53;8.30;;;4.85;;
68097;SDS011;54886;47.036;15.466;2023-04-24T04:08:19;8.55;;;5.00;;
68097;SDS011;54886;47.036;15.466;2023-04-24T04:10:44;10.63;;;5.20;;
68097;SDS011;54886;47.036;15.466;2023-04-24T04:13:10;8.45;;;4.75;;
68097;SDS011;54886;47.036;15.466;2023-04-24T04:15:35;8.75;;;5.20;;
68097;SDS011;54886;47.036;15.466;2023-04-24T04:18:00;8.70;;;5.35;;
68097;SDS011;54886;47.036;15.466;2023-04-24T04:20:26;8.15;;;4.55;;
68097;SDS011;54886;47.036;15.466;2023-04-24T04:22:51;7.65;;;4.70;;
68097;SDS011;54886;47.036;15.466;2023-04-24T04:25:17;7.30;;;4.25;;
68097;SDS011;54886;47.036;15.466;2023-04-24T04:27:44;7.35;;;4.28;;
68097;SDS011;54886;47.036;15.466;2023-04-24T04:30:12;7.43;;;4.68;;
68097;SDS011;54886;47.036;15.466;2023-04-24T04:32:38;7.82;;;4.63;;
68097;SDS011;54886;47.036;15.466;2023-04-24T04:35:03;8.88;;;4.60;;
68097;SDS011;54886;47.036;15.466;2023-04-24T04:37:30;7.32;;;4.32;;
68097;SDS011;54886;47.036;15.466;2023-04-24T04:39:56;7.78;;;4.85;;
68097;SDS011;54886;47.036;15.466;2023-04-24T04:42:23;8.57;;;4.75;;
68097;SDS011;54886;47.036;15.466;2023-04-24T04:44:49;9.32;;;4.93;;
68097;SDS011;54886;47.036;15.466;2023-04-24T04:47:15;8.10;;;4.93;;
68097;SDS011;54886;47.036;15.466;2023-04-24T04:49:42;7.60;;;4.22;;
68097;SDS011;54886;47.036;15.466;2023-04-24T04:52:08;9.98;;;4.68;;
68097;SDS011;54886;47.036;15.466;2023-04-24T04:54:34;10.70;;;4.70;;
68097;SDS011;54886;47.036;15.466;2023-04-24T04:56:59;12.52;;;4.97;;
68097;SDS011;54886;47.036;15.466;2023-04-24T04:59:25;8.13;;;4.70;;
68097;SDS011;54886;47.036;15.466;2023-04-24T05:01:51;7.93;;;4.78;;
68097;SDS011;54886;47.036;15.466;2023-04-24T05:04:16;7.18;;;4.57;;
68097;SDS011;54886;47.036;15.466;2023-04-24T05:06:42;9.32;;;4.85;;
68097;SDS011;54886;47.036;15.466;2023-04-24T05:09:07;10.00;;;5.07;;
68097;SDS011;54886;47.036;15.466;2023-04-24T05:11:33;8.38;;;5.22;;
68097;SDS011;54886;47.036;15.466;2023-04-24T05:13:58;8.60;;;5.35;;
68097;SDS011;54886;47.036;15.466;2023-04-24T05:16:23;10.85;;;5.95;;
68097;SDS011;54886;47.036;15.466;2023-04-24T05:18:49;12.20;;;6.35;;
68097;SDS011;54886;47.036;15.466;2023-04-24T05:21:14;9.50;;;5.88;;
68097;SDS011;54886;47.036;15.466;2023-04-24T05:23:40;10.93;;;6.05;;
68097;SDS011;54886;47.036;15.466;2023-04-24T05:26:05;10.65;;;6.13;;
68097;SDS011;54886;47.036;15.466;2023-04-24T05:28:31;9.35;;;5.93;;
68097;SDS011;54886;47.036;15.466;2023-04-24T05:30:56;12.45;;;6.28;;
68097;SDS011;54886;47.036;15.466;2023-04-24T05:33:21;11.27;;;6.45;;
68097;SDS011;54886;47.036;15.466;2023-04-24T05:35:47;10.18;;;5.80;;
68097;SDS011;54886;47.036;15.466;2023-04-24T05:38:13;9.98;;;6.05;;
68097;SDS011;54886;47.036;15.466;2023-04-24T05:40:39;11.38;;;6.00;;
68097;SDS011;54886;47.036;15.466;2023-04-24T05:43:04;10.50;;;6.35;;
68097;SDS011;54886;47.036;15.466;2023-04-24T05:45:30;9.63;;;6.38;;
68097;SDS011;54886;47.036;15.466;2023-04-24T05:47:55;10.82;;;7.00;;
68097;SDS011;54886;47.036;15.466;2023-04-24T05:50:21;12.45;;;6.30;;
68097;SDS011;54886;47.036;15.466;2023-04-24T05:52:46;11.07;;;7.43;;
68097;SDS011;54886;47.036;15.466;2023-04-24T05:55:11;11.32;;;6.97;;
68097;SDS011;54886;47.036;15.466;2023-04-24T05:57:37;9.57;;;6.75;;
68097;SDS011;54886;47.036;15.466;2023-04-24T06:00:03;14.23;;;7.25;;
68097;SDS011;54886;47.036;15.466;2023-04-24T06:02:29;11.82;;;7.38;;
68097;SDS011;54886;47.036;15.466;2023-04-24T06:04:57;15.93;;;8.10;;
68097;SDS011;54886;47.036;15.466;2023-04-24T06:07:25;13.27;;;8.10;;
68097;SDS011;54886;47.036;15.466;2023-04-24T06:09:51;12.00;;;7.75;;
68097;SDS011;54886;47.036;15.466;2023-04-24T06:12:17;12.27;;;7.75;;
68097;SDS011;54886;47.036;15.466;2023-04-24T06:14:42;12.63;;;7.50;;
68097;SDS011;54886;47.036;15.466;2023-04-24T06:17:08;10.98;;;7.25;;
68097;SDS011;54886;47.036;15.466;2023-04-24T06:19:33;11.63;;;6.95;;
68097;SDS011;54886;47.036;15.466;2023-04-24T06:21:59;13.18;;;7.47;;
68097;SDS011;54886;47.036;15.466;2023-04-24T06:24:27;11.32;;;6.93;;
68097;SDS011;54886;47.036;15.466;2023-04-24T06:26:53;10.80;;;6.97;;
68097;SDS011;54886;47.036;15.466;2023-04-24T06:29:19;14.50;;;7.47;;
68097;SDS011;54886;47.036;15.466;2023-04-24T06:31:44;12.98;;;7.30;;
68097;SDS011;54886;47.036;15.466;2023-04-24T06:34:10;12.40;;;6.95;;
68097;SDS011;54886;47.036;15.466;2023-04-24T06:36:35;12.02;;;7.20;;
68097;SDS011;54886;47.036;15.466;2023-04-24T06:39:01;12.10;;;7.10;;
68097;SDS011;54886;47.036;15.466;2023-04-24T06:41:27;14.50;;;7.50;;
68097;SDS011;54886;47.036;15.466;2023-04-24T06:43:53;12.10;;;7.45;;
68097;SDS011;54886;47.036;15.466;2023-04-24T06:46:19;14.15;;;7.45;;
68097;SDS011;54886;47.036;15.466;2023-04-24T06:48:47;13.52;;;7.05;;
68097;SDS011;54886;47.036;15.466;2023-04-24T06:51:12;11.82;;;6.75;;
68097;SDS011;54886;47.036;15.466;2023-04-24T06:53:37;11.70;;;7.55;;
68097;SDS011;54886;47.036;15.466;2023-04-24T06:56:03;13.02;;;7.00;;
68097;SDS011;54886;47.036;15.466;2023-04-24T06:58:29;10.80;;;6.63;;
68097;SDS011;54886;47.036;15.466;2023-04-24T07:00:55;9.95;;;7.25;;
68097;SDS011;54886;47.036;15.466;2023-04-24T07:03:20;13.85;;;7.75;;
68097;SDS011;54886;47.036;15.466;2023-04-24T07:05:46;12.65;;;6.97;;
68097;SDS011;54886;47.036;15.466;2023-04-24T07:08:12;11.70;;;7.63;;
68097;SDS011;54886;47.036;15.466;2023-04-24T07:10:38;10.13;;;7.32;;
68097;SDS011;54886;47.036;15.466;2023-04-24T07:13:04;13.55;;;8.32;;
68097;SDS011;54886;47.036;15.466;2023-04-24T07:15:29;11.88;;;8.07;;
68097;SDS011;54886;47.036;15.466;2023-04-24T07:17:55;14.13;;;8.30;;
68097;SDS011;54886;47.036;15.466;2023-04-24T07:20:21;12.68;;;7.07;;
68097;SDS011;54886;47.036;15.466;2023-04-24T07:22:46;11.73;;;7.40;;
68097;SDS011;54886;47.036;15.466;2023-04-24T07:25:13;14.88;;;8.07;;
68097;SDS011;54886;47.036;15.466;2023-04-24T07:27:38;11.07;;;7.50;;
68097;SDS011;54886;47.036;15.466;2023-04-24T07:30:04;13.55;;;8.20;;
68097;SDS011;54886;47.036;15.466;2023-04-24T07:32:30;13.15;;;7.72;;
68097;SDS011;54886;47.036;15.466;2023-04-24T07:34:55;11.50;;;7.68;;
68097;SDS011;54886;47.036;15.466;2023-04-24T07:37:20;13.18;;;8.32;;
68097;SDS011;54886;47.036;15.466;2023-04-24T07:39:46;11.88;;;7.97;;
68097;SDS011;54886;47.036;15.466;2023-04-24T07:42:12;14.55;;;8.27;;
68097;SDS011;54886;47.036;15.466;2023-04-24T07:44:37;13.05;;;8.65;;
68097;SDS011;54886;47.036;15.466;2023-04-24T07:47:02;12.52;;;8.15;;
68097;SDS011;54886;47.036;15.466;2023-04-24T07:49:28;11.65;;;8.02;;
68097;SDS011;54886;47.036;15.466;2023-04-24T07:51:53;17.00;;;9.05;;
68097;SDS011;54886;47.036;15.466;2023-04-24T07:54:19;16.52;;;9.20;;
68097;SDS011;54886;47.036;15.466;2023-04-24T07:56:44;11.75;;;8.70;;
68097;SDS011;54886;47.036;15.466;2023-04-24T07:59:10;15.57;;;8.25;;
68097;SDS011;54886;47.036;15.466;2023-04-24T08:01:36;16.10;;;8.75;;
68097;SDS011;54886;47.036;15.466;2023-04-24T08:04:01;15.60;;;8.90;;
68097;SDS011;54886;47.036;15.466;2023-04-24T08:06:27;17.75;;;9.05;;
68097;SDS011;54886;47.036;15.466;2023-04-24T08:08:55;15.77;;;8.57;;
68097;SDS011;54886;47.036;15.466;2023-04-24T08:11:21;17.25;;;8.43;;
68097;SDS011;54886;47.036;15.466;2023-04-24T08:13:47;15.40;;;8.55;;
68097;SDS011;54886;47.036;15.466;2023-04-24T08:16:12;16.25;;;8.27;;
68097;SDS011;54886;47.036;15.466;2023-04-24T08:18:37;13.93;;;8.50;;
68097;SDS011;54886;47.036;15.466;2023-04-24T08:21:03;12.98;;;8.35;;
68097;SDS011;54886;47.036;15.466;2023-04-24T08:23:29;13.45;;;8.40;;
68097;SDS011;54886;47.036;15.466;2023-04-24T08:25:54;18.05;;;8.48;;
68097;SDS011;54886;47.036;15.466;2023-04-24T08:28:20;14.95;;;8.07;;
68097;SDS011;54886;47.036;15.466;2023-04-24T08:30:46;15.95;;;8.68;;
68097;SDS011;54886;47.036;15.466;2023-04-24T08:33:13;15.55;;;10.02;;
68097;SDS011;54886;47.036;15.466;2023-04-24T08:35:39;13.80;;;8.90;;
68097;SDS011;54886;47.036;15.466;2023-04-24T08:38:05;15.20;;;8.23;;
68097;SDS011;54886;47.036;15.466;2023-04-24T08:40:30;16.77;;;8.60;;
68097;SDS011;54886;47.036;15.466;2023-04-24T08:42:59;15.07;;;7.97;;
68097;SDS011;54886;47.036;15.466;2023-04-24T08:45:25;12.05;;;7.97;;
68097;SDS011;54886;47.036;15.466;2023-04-24T08:47:51;15.48;;;9.00;;
68097;SDS011;54886;47.036;15.466;2023-04-24T08:50:19;17.70;;;8.45;;
68097;SDS011;54886;47.036;15.466;2023-04-24T08:52:45;15.02;;;8.63;;
68097;SDS011;54886;47.036;15.466;2023-04-24T08:55:13;17.55;;;8.20;;
68097;SDS011;54886;47.036;15.466;2023-04-24T08:57:41;13.23;;;8.48;;
68097;SDS011;54886;47.036;15.466;2023-04-24T09:00:10;13.80;;;8.13;;
68097;SDS011;54886;47.036;15.466;2023-04-24T09:02:35;12.57;;;7.53;;
68097;SDS011;54886;47.036;15.466;2023-04-24T09:05:01;17.35;;;8.48;;
68097;SDS011;54886;47.036;15.466;2023-04-24T09:07:28;14.30;;;8.45;;
68097;SDS011;54886;47.036;15.466;2023-04-24T09:09:58;17.13;;;9.10;;
68097;SDS011;54886;47.036;15.466;2023-04-24T09:12:24;12.90;;;8.57;;
68097;SDS011;54886;47.036;15.466;2023-04-24T09:14:50;14.32;;;8.55;;
68097;SDS011;54886;47.036;15.466;2023-04-24T09:17:16;15.38;;;8.38;;
68097;SDS011;54886;47.036;15.466;2023-04-24T09:19:41;16.48;;;9.73;;
68097;SDS011;54886;47.036;15.466;2023-04-24T09:22:09;15.23;;;8.90;;
68097;SDS011;54886;47.036;15.466;2023-04-24T09:24:36;16.05;;;9.45;;
68097;SDS011;54886;47.036;15.466;2023-04-24T09:27:01;13.93;;;9.13;;
68097;SDS011;54886;47.036;15.466;2023-04-24T09:29:27;15.48;;;9.75;;
68097;SDS011;54886;47.036;15.466;2023-04-24T09:31:53;15.15;;;8.80;;
68097;SDS011;54886;47.036;15.466;2023-04-24T09:34:22;11.60;;;6.72;;
68097;SDS011;54886;47.036;15.466;2023-04-24T09:36:48;9.43;;;5.65;;
68097;SDS011;54886;47.036;15.466;2023-04-24T09:39:15;7.63;;;4.10;;
68097;SDS011;54886;47.036;15.466;2023-04-24T09:41:45;8.77;;;4.10;;
68097;SDS011;54886;47.036;15.466;2023-04-24T09:46:38;4.85;;;3.20;;
68097;SDS011;54886;47.036;15.466;2023-04-24T09:49:11;6.20;;;3.55;;
68097;SDS011;54886;47.036;15.466;2023-04-24T09:51:38;8.23;;;2.80;;
68097;SDS011;54886;47.036;15.466;2023-04-24T09:54:05;4.65;;;2.88;;
68097;SDS011;54886;47.036;15.466;2023-04-24T09:56:39;3.83;;;2.58;;
68097;SDS011;54886;47.036;15.466;2023-04-24T09:59:08;5.35;;;2.97;;
68097;SDS011;54886;47.036;15.466;2023-04-24T10:01:33;3.58;;;2.38;;
68097;SDS011;54886;47.036;15.466;2023-04-24T10:03:59;5.18;;;2.33;;
68097;SDS011;54886;47.036;15.466;2023-04-24T10:06:32;5.05;;;2.83;;
68097;SDS011;54886;47.036;15.466;2023-04-24T10:08:58;4.60;;;2.70;;
68097;SDS011;54886;47.036;15.466;2023-04-24T10:11:26;4.45;;;2.28;;
68097;SDS011;54886;47.036;15.466;2023-04-24T10:13:52;3.28;;;2.30;;
68097;SDS011;54886;47.036;15.466;2023-04-24T10:16:18;4.05;;;2.50;;
68097;SDS011;54886;47.036;15.466;2023-04-24T10:18:45;5.45;;;2.60;;
68097;SDS011;54886;47.036;15.466;2023-04-24T10:21:12;3.22;;;2.00;;
68097;SDS011;54886;47.036;15.466;2023-04-24T10:23:38;4.18;;;2.20;;
68097;SDS011;54886;47.036;15.466;2023-04-24T10:26:05;2.20;;;1.80;;
68097;SDS011;54886;47.036;15.466;2023-04-24T10:28:31;3.40;;;2.05;;
68097;SDS011;54886;47.036;15.466;2023-04-24T10:30:57;2.95;;;1.83;;
68097;SDS011;54886;47.036;15.466;2023-04-24T10:33:23;3.40;;;2.13;;
68097;SDS011;54886;47.036;15.466;2023-04-24T10:35:49;3.13;;;1.98;;
68097;SDS011;54886;47.036;15.466;2023-04-24T10:38:17;2.47;;;1.98;;
68097;SDS011;54886;47.036;15.466;2023-04-24T10:40:49;4.30;;;2.60;;
68097;SDS011;54886;47.036;15.466;2023-04-24T10:43:16;3.08;;;2.10;;
68097;SDS011;54886;47.036;15.466;2023-04-24T10:45:42;4.28;;;2.30;;
68097;SDS011;54886;47.036;15.466;2023-04-24T10:48:28;3.95;;;2.20;;
68097;SDS011;54886;47.036;15.466;2023-04-24T10:50:54;5.05;;;2.10;;
68097;SDS011;54886;47.036;15.466;2023-04-24T10:53:21;4.00;;;2.40;;
68097;SDS011;54886;47.036;15.466;2023-04-24T10:56:07;4.30;;;2.13;;
68097;SDS011;54886;47.036;15.466;2023-04-24T10:58:45;3.20;;;2.20;;
68097;SDS011;54886;47.036;15.466;2023-04-24T11:01:32;3.65;;;2.10;;
68097;SDS011;54886;47.036;15.466;2023-04-24T11:04:01;5.07;;;2.10;;
68097;SDS011;54886;47.036;15.466;2023-04-24T11:06:29;4.05;;;2.30;;
68097;SDS011;54886;47.036;15.466;2023-04-24T11:09:06;3.83;;;1.90;;
68097;SDS011;54886;47.036;15.466;2023-04-24T11:11:37;3.30;;;2.00;;
68097;SDS011;54886;47.036;15.466;2023-04-24T11:14:06;2.60;;;1.90;;
68097;SDS011;54886;47.036;15.466;2023-04-24T11:21:42;2.13;;;1.80;;
68097;SDS011;54886;47.036;15.466;2023-04-24T11:26:57;3.80;;;1.73;;
68097;SDS011;54886;47.036;15.466;2023-04-24T11:29:38;1.65;;;1.55;;
68097;SDS011;54886;47.036;15.466;2023-04-24T11:35:13;3.33;;;1.80;;
68097;SDS011;54886;47.036;15.466;2023-04-24T11:37:44;2.03;;;1.60;;
68097;SDS011;54886;47.036;15.466;2023-04-24T11:40:12;3.60;;;1.90;;
68097;SDS011;54886;47.036;15.466;2023-04-24T11:42:41;1.52;;;1.40;;
68097;SDS011;54886;47.036;15.466;2023-04-24T11:45:17;2.05;;;1.40;;
68097;SDS011;54886;47.036;15.466;2023-04-24T11:47:47;1.65;;;1.40;;
68097;SDS011;54886;47.036;15.466;2023-04-24T11:50:14;1.40;;;1.30;;
68097;SDS011;54886;47.036;15.466;2023-04-24T11:55:07;1.65;;;1.50;;
68097;SDS011;54886;47.036;15.466;2023-04-24T11:57:39;1.75;;;1.50;;
68097;SDS011;54886;47.036;15.466;2023-04-24T12:00:09;3.17;;;1.50;;
68097;SDS011;54886;47.036;15.466;2023-04-24T12:02:41;2.53;;;1.48;;
68097;SDS011;54886;47.036;15.466;2023-04-24T12:05:06;1.50;;;1.40;;
68097;SDS011;54886;47.036;15.466;2023-04-24T12:07:32;3.47;;;1.50;;
68097;SDS011;54886;47.036;15.466;2023-04-24T12:10:07;1.80;;;1.30;;
68097;SDS011;54886;47.036;15.466;2023-04-24T12:12:34;1.65;;;1.25;;
68097;SDS011;54886;47.036;15.466;2023-04-24T12:15:00;1.27;;;1.20;;
68097;SDS011;54886;47.036;15.466;2023-04-24T12:17:31;1.40;;;1.30;;
68097;SDS011;54886;47.036;15.466;2023-04-24T12:19:59;1.20;;;1.20;;
68097;SDS011;54886;47.036;15.466;2023-04-24T12:22:28;1.38;;;1.20;;
68097;SDS011;54886;47.036;15.466;2023-04-24T12:25:12;1.52;;;1.40;;
68097;SDS011;54886;47.036;15.466;2023-04-24T12:27:38;10.23;;;1.60;;
68097;SDS011;54886;47.036;15.466;2023-04-24T12:30:04;2.17;;;1.30;;
68097;SDS011;54886;47.036;15.466;2023-04-24T12:32:30;1.48;;;1.30;;
68097;SDS011;54886;47.036;15.466;2023-04-24T12:34:57;4.00;;;1.30;;
68097;SDS011;54886;47.036;15.466;2023-04-24T12:37:26;2.08;;;1.20;;
68097;SDS011;54886;47.036;15.466;2023-04-24T12:42:33;1.10;;;1.00;;
68097;SDS011;54886;47.036;15.466;2023-04-24T12:45:03;2.38;;;1.30;;
68097;SDS011;54886;47.036;15.466;2023-04-24T12:47:31;2.63;;;1.30;;
68097;SDS011;54886;47.036;15.466;2023-04-24T12:49:57;1.85;;;1.20;;
68097;SDS011;54886;47.036;15.466;2023-04-24T12:52:23;3.85;;;1.20;;
68097;SDS011;54886;47.036;15.466;2023-04-24T12:54:50;1.33;;;1.17;;
68097;SDS011;54886;47.036;15.466;2023-04-24T12:57:17;1.35;;;1.10;;
68097;SDS011;54886;47.036;15.466;2023-04-24T12:59:43;1.13;;;1.10;;
68097;SDS011;54886;47.036;15.466;2023-04-24T13:02:09;1.08;;;1.08;;
68097;SDS011;54886;47.036;15.466;2023-04-24T13:04:35;1.23;;;0.90;;
68097;SDS011;54886;47.036;15.466;2023-04-24T13:07:00;0.80;;;0.80;;
68097;SDS011;54886;47.036;15.466;2023-04-24T13:09:26;1.00;;;1.00;;
68097;SDS011;54886;47.036;15.466;2023-04-24T13:11:51;1.85;;;1.00;;
68097;SDS011;54886;47.036;15.466;2023-04-24T13:14:16;3.72;;;0.93;;
68097;SDS011;54886;47.036;15.466;2023-04-24T13:16:42;1.30;;;1.20;;
68097;SDS011;54886;47.036;15.466;2023-04-24T13:19:07;4.78;;;1.08;;
68097;SDS011;54886;47.036;15.466;2023-04-24T13:21:32;1.00;;;1.00;;
68097;SDS011;54886;47.036;15.466;2023-04-24T13:23:58;2.35;;;0.90;;
68097;SDS011;54886;47.036;15.466;2023-04-24T13:26:23;1.50;;;0.88;;
68097;SDS011;54886;47.036;15.466;2023-04-24T13:28:49;1.25;;;0.90;;
68097;SDS011;54886;47.036;15.466;2023-04-24T13:31:14;1.48;;;0.90;;
68097;SDS011;54886;47.036;15.466;2023-04-24T13:33:40;2.58;;;1.20;;
68097;SDS011;54886;47.036;15.466;2023-04-24T13:36:05;1.10;;;1.05;;
68097;SDS011;54886;47.036;15.466;2023-04-24T13:38:31;1.75;;;1.00;;
68097;SDS011;54886;47.036;15.466;2023-04-24T13:40:56;2.95;;;1.15;;
68097;SDS011;54886;47.036;15.466;2023-04-24T13:43:22;1.35;;;1.00;;
68097;SDS011;54886;47.036;15.466;2023-04-24T13:45:47;0.85;;;0.85;;
68097;SDS011;54886;47.036;15.466;2023-04-24T13:48:12;0.88;;;0.88;;
68097;SDS011;54886;47.036;15.466;2023-04-24T13:50:40;1.23;;;1.13;;
68097;SDS011;54886;47.036;15.466;2023-04-24T13:53:06;1.83;;;1.38;;
68097;SDS011;54886;47.036;15.466;2023-04-24T13:55:31;3.03;;;1.00;;
68097;SDS011;54886;47.036;15.466;2023-04-24T13:57:57;2.65;;;1.15;;
68097;SDS011;54886;47.036;15.466;2023-04-24T14:00:22;2.50;;;1.10;;
68097;SDS011;54886;47.036;15.466;2023-04-24T14:02:48;1.73;;;1.30;;
68097;SDS011;54886;47.036;15.466;2023-04-24T14:05:14;1.08;;;1.08;;
68097;SDS011;54886;47.036;15.466;2023-04-24T14:07:40;4.40;;;1.20;;
68097;SDS011;54886;47.036;15.466;2023-04-24T14:10:06;1.65;;;1.10;;
68097;SDS011;54886;47.036;15.466;2023-04-24T14:12:32;1.20;;;1.10;;
68097;SDS011;54886;47.036;15.466;2023-04-24T14:14:57;1.25;;;1.15;;
68097;SDS011;54886;47.036;15.466;2023-04-24T14:17:22;1.13;;;1.02;;
68097;SDS011;54886;47.036;15.466;2023-04-24T14:19:48;2.92;;;1.10;;
68097;SDS011;54886;47.036;15.466;2023-04-24T14:22:13;2.13;;;1.30;;
68097;SDS011;54886;47.036;15.466;2023-04-24T14:24:38;2.80;;;1.40;;
68097;SDS011;54886;47.036;15.466;2023-04-24T14:27:04;2.17;;;1.30;;
68097;SDS011;54886;47.036;15.466;2023-04-24T14:29:29;4.10;;;1.30;;
68097;SDS011;54886;47.036;15.466;2023-04-24T14:31:55;1.98;;;1.30;;
68097;SDS011;54886;47.036;15.466;2023-04-24T14:34:20;3.53;;;1.60;;
68097;SDS011;54886;47.036;15.466;2023-04-24T14:36:46;2.20;;;1.40;;
68097;SDS011;54886;47.036;15.466;2023-04-24T14:39:11;1.50;;;1.40;;
68097;SDS011;54886;47.036;15.466;2023-04-24T14:41:37;2.00;;;1.40;;
68097;SDS011;54886;47.036;15.466;2023-04-24T14:44:04;4.00;;;1.45;;